sensor_id;sensor_type;location;lat;lon;timestamp;temperature;humidity
39983;DHT22;25670;44.782;10.356;2023-12-14T00:01:40;5.10;99.90
39983;DHT22;25670;44.782;10.356;2023-12-14T00:04:07;5.00;99.90
39983;DHT22;25670;44.782;10.356;2023-12-14T00:06:34;4.90;99.90
39983;DHT22;25670;44.782;10.356;2023-12-14T00:09:00;4.80;99.90
39983;DHT22;25670;44.782;10.356;2023-12-14T00:11:26;4.80;99.90
39983;DHT22;25670;44.782;10.356;2023-12-14T00:13:52;4.70;99.90
39983;DHT22;25670;44.782;10.356;2023-12-14T00:16:18;4.80;99.90
39983;DHT22;25670;44.782;10.356;2023-12-14T00:18:45;4.80;99.90
39983;DHT22;25670;44.782;10.356;2023-12-14T00:21:11;4.80;99.90
39983;DHT22;25670;44.782;10.356;2023-12-14T00:23:37;4.80;99.90
39983;DHT22;25670;44.782;10.356;2023-12-14T00:26:03;4.80;99.90
39983;DHT22;25670;44.782;10.356;2023-12-14T00:28:30;4.90;99.90
39983;DHT22;25670;44.782;10.356;2023-12-14T00:30:56;5.00;99.90
39983;DHT22;25670;44.782;10.356;2023-12-14T00:33:22;5.10;99.90
39983;DHT22;25670;44.782;10.356;2023-12-14T00:35:49;5.20;99.90
39983;DHT22;25670;44.782;10.356;2023-12-14T00:38:15;5.20;99.90
39983;DHT22;25670;44.782;10.356;2023-12-14T00:40:41;5.30;99.90
39983;DHT22;25670;44.782;10.356;2023-12-14T00:43:07;5.30;99.90
39983;DHT22;25670;44.782;10.356;2023-12-14T00:45:34;5.30;99.90
39983;DHT22;25670;44.782;10.356;2023-12-14T00:48:00;7.30;99.90
39983;DHT22;25670;44.782;10.356;2023-12-14T00:50:26;5.30;99.90
39983;DHT22;25670;44.782;10.356;2023-12-14T00:52:52;5.40;99.90
39983;DHT22;25670;44.782;10.356;2023-12-14T00:55:18;5.30;99.90
39983;DHT22;25670;44.782;10.356;2023-12-14T00:57:44;5.30;99.90
39983;DHT22;25670;44.782;10.356;2023-12-14T01:00:11;5.30;99.90
39983;DHT22;25670;44.782;10.356;2023-12-14T01:02:38;5.30;99.90
39983;DHT22;25670;44.782;10.356;2023-12-14T01:05:05;5.40;99.90
39983;DHT22;25670;44.782;10.356;2023-12-14T01:07:31;5.50;99.90
39983;DHT22;25670;44.782;10.356;2023-12-14T01:09:57;5.60;99.90
39983;DHT22;25670;44.782;10.356;2023-12-14T01:12:23;5.60;99.90
39983;DHT22;25670;44.782;10.356;2023-12-14T01:14:50;5.70;99.90
39983;DHT22;25670;44.782;10.356;2023-12-14T01:17:16;5.80;99.90
39983;DHT22;25670;44.782;10.356;2023-12-14T01:19:42;5.80;99.90
39983;DHT22;25670;44.782;10.356;2023-12-14T01:22:08;5.90;99.90
39983;DHT22;25670;44.782;10.356;2023-12-14T01:24:34;5.90;99.90
39983;DHT22;25670;44.782;10.356;2023-12-14T01:27:00;6.00;99.90
39983;DHT22;25670;44.782;10.356;2023-12-14T01:29:27;6.00;99.90
39983;DHT22;25670;44.782;10.356;2023-12-14T01:31:55;6.00;99.90
39983;DHT22;25670;44.782;10.356;2023-12-14T01:34:21;6.00;99.90
39983;DHT22;25670;44.782;10.356;2023-12-14T01:36:50;6.00;99.90
39983;DHT22;25670;44.782;10.356;2023-12-14T01:39:17;6.10;99.90
39983;DHT22;25670;44.782;10.356;2023-12-14T01:41:43;6.00;99.90
39983;DHT22;25670;44.782;10.356;2023-12-14T01:44:09;6.10;99.90
39983;DHT22;25670;44.782;10.356;2023-12-14T01:46:35;6.10;99.90
39983;DHT22;25670;44.782;10.356;2023-12-14T01:49:01;6.00;99.90
39983;DHT22;25670;44.782;10.356;2023-12-14T01:51:27;6.00;99.90
39983;DHT22;25670;44.782;10.356;2023-12-14T01:53:54;6.10;99.90
39983;DHT22;25670;44.782;10.356;2023-12-14T01:56:20;6.30;99.90
39983;DHT22;25670;44.782;10.356;2023-12-14T01:58:46;6.40;99.90
39983;DHT22;25670;44.782;10.356;2023-12-14T02:01:27;6.40;99.90
39983;DHT22;25670;44.782;10.356;2023-12-14T02:03:55;6.40;99.90
39983;DHT22;25670;44.782;10.356;2023-12-14T02:06:21;6.40;99.90
39983;DHT22;25670;44.782;10.356;2023-12-14T02:08:47;6.50;99.90
39983;DHT22;25670;44.782;10.356;2023-12-14T02:11:14;6.50;99.90
39983;DHT22;25670;44.782;10.356;2023-12-14T02:13:40;6.50;99.90
39983;DHT22;25670;44.782;10.356;2023-12-14T02:16:06;6.60;99.90
39983;DHT22;25670;44.782;10.356;2023-12-14T02:18:33;6.60;99.90
39983;DHT22;25670;44.782;10.356;2023-12-14T02:20:59;6.60;99.90
39983;DHT22;25670;44.782;10.356;2023-12-14T02:23:25;6.60;99.90
39983;DHT22;25670;44.782;10.356;2023-12-14T02:25:51;6.70;99.90
39983;DHT22;25670;44.782;10.356;2023-12-14T02:28:18;6.60;99.90
39983;DHT22;25670;44.782;10.356;2023-12-14T02:30:44;6.50;99.90
39983;DHT22;25670;44.782;10.356;2023-12-14T02:33:10;6.50;99.90
39983;DHT22;25670;44.782;10.356;2023-12-14T02:35:36;6.50;99.90
39983;DHT22;25670;44.782;10.356;2023-12-14T02:38:02;6.50;99.90
39983;DHT22;25670;44.782;10.356;2023-12-14T02:40:31;6.50;99.90
39983;DHT22;25670;44.782;10.356;2023-12-14T02:42:58;6.50;99.90
39983;DHT22;25670;44.782;10.356;2023-12-14T02:45:24;6.80;99.90
39983;DHT22;25670;44.782;10.356;2023-12-14T02:47:50;6.60;99.90
39983;DHT22;25670;44.782;10.356;2023-12-14T02:50:18;6.60;99.90
39983;DHT22;25670;44.782;10.356;2023-12-14T02:52:44;6.60;99.90
39983;DHT22;25670;44.782;10.356;2023-12-14T02:55:10;6.60;99.90
39983;DHT22;25670;44.782;10.356;2023-12-14T02:57:37;6.60;99.90
39983;DHT22;25670;44.782;10.356;2023-12-14T03:00:04;6.80;99.90
39983;DHT22;25670;44.782;10.356;2023-12-14T03:02:30;6.70;99.90
39983;DHT22;25670;44.782;10.356;2023-12-14T03:04:57;6.80;99.90
39983;DHT22;25670;44.782;10.356;2023-12-14T03:07:23;6.80;99.90
39983;DHT22;25670;44.782;10.356;2023-12-14T03:09:49;6.70;99.90
39983;DHT22;25670;44.782;10.356;2023-12-14T03:12:15;6.70;99.90
39983;DHT22;25670;44.782;10.356;2023-12-14T03:14:42;6.70;99.90
39983;DHT22;25670;44.782;10.356;2023-12-14T03:17:08;7.20;99.90
39983;DHT22;25670;44.782;10.356;2023-12-14T03:19:42;6.80;99.90
39983;DHT22;25670;44.782;10.356;2023-12-14T03:22:09;6.80;99.90
39983;DHT22;25670;44.782;10.356;2023-12-14T03:24:35;7.00;99.90
39983;DHT22;25670;44.782;10.356;2023-12-14T03:27:03;6.90;99.90
39983;DHT22;25670;44.782;10.356;2023-12-14T03:29:29;6.90;99.90
39983;DHT22;25670;44.782;10.356;2023-12-14T03:31:56;7.00;99.90
39983;DHT22;25670;44.782;10.356;2023-12-14T03:34:23;7.00;99.90
39983;DHT22;25670;44.782;10.356;2023-12-14T03:36:50;7.00;99.90
39983;DHT22;25670;44.782;10.356;2023-12-14T03:39:17;7.00;99.90
39983;DHT22;25670;44.782;10.356;2023-12-14T03:41:44;7.60;99.90
39983;DHT22;25670;44.782;10.356;2023-12-14T03:44:10;6.30;99.90
39983;DHT22;25670;44.782;10.356;2023-12-14T03:46:37;7.10;99.90
39983;DHT22;25670;44.782;10.356;2023-12-14T03:49:03;7.10;99.90
39983;DHT22;25670;44.782;10.356;2023-12-14T03:51:30;7.20;99.90
39983;DHT22;25670;44.782;10.356;2023-12-14T03:53:56;7.20;99.90
39983;DHT22;25670;44.782;10.356;2023-12-14T03:56:23;7.80;99.90
39983;DHT22;25670;44.782;10.356;2023-12-14T03:58:49;7.50;99.90
39983;DHT22;25670;44.782;10.356;2023-12-14T04:01:17;7.30;99.90
39983;DHT22;25670;44.782;10.356;2023-12-14T04:03:44;7.30;99.90
39983;DHT22;25670;44.782;10.356;2023-12-14T04:06:14;7.30;99.90
39983;DHT22;25670;44.782;10.356;2023-12-14T04:08:41;7.30;99.90
39983;DHT22;25670;44.782;10.356;2023-12-14T04:11:07;7.40;99.90
39983;DHT22;25670;44.782;10.356;2023-12-14T04:13:34;7.40;99.90
39983;DHT22;25670;44.782;10.356;2023-12-14T04:16:01;7.50;99.90
39983;DHT22;25670;44.782;10.356;2023-12-14T04:18:27;7.30;99.90
39983;DHT22;25670;44.782;10.356;2023-12-14T04:20:54;7.40;99.90
39983;DHT22;25670;44.782;10.356;2023-12-14T04:23:20;7.50;99.90
39983;DHT22;25670;44.782;10.356;2023-12-14T04:25:46;7.50;99.90
39983;DHT22;25670;44.782;10.356;2023-12-14T04:28:13;7.50;99.90
39983;DHT22;25670;44.782;10.356;2023-12-14T04:30:39;7.40;99.90
39983;DHT22;25670;44.782;10.356;2023-12-14T04:33:05;7.40;99.90
39983;DHT22;25670;44.782;10.356;2023-12-14T04:35:31;7.40;99.90
39983;DHT22;25670;44.782;10.356;2023-12-14T04:38:02;7.50;99.90
39983;DHT22;25670;44.782;10.356;2023-12-14T04:40:28;7.50;99.90
39983;DHT22;25670;44.782;10.356;2023-12-14T04:42:55;7.50;99.90
39983;DHT22;25670;44.782;10.356;2023-12-14T04:45:21;8.10;99.90
39983;DHT22;25670;44.782;10.356;2023-12-14T04:47:47;7.60;99.90
39983;DHT22;25670;44.782;10.356;2023-12-14T04:50:13;7.60;99.90
39983;DHT22;25670;44.782;10.356;2023-12-14T04:52:41;8.20;99.90
39983;DHT22;25670;44.782;10.356;2023-12-14T04:55:08;7.60;99.90
39983;DHT22;25670;44.782;10.356;2023-12-14T04:57:35;7.60;99.90
39983;DHT22;25670;44.782;10.356;2023-12-14T05:00:04;7.60;99.90
39983;DHT22;25670;44.782;10.356;2023-12-14T05:02:32;7.60;99.90
39983;DHT22;25670;44.782;10.356;2023-12-14T05:04:58;7.60;99.90
39983;DHT22;25670;44.782;10.356;2023-12-14T05:07:24;7.60;99.90
39983;DHT22;25670;44.782;10.356;2023-12-14T05:09:51;7.60;99.90
39983;DHT22;25670;44.782;10.356;2023-12-14T05:12:17;7.60;99.90
39983;DHT22;25670;44.782;10.356;2023-12-14T05:14:44;7.50;99.90
39983;DHT22;25670;44.782;10.356;2023-12-14T05:17:10;7.50;99.90
39983;DHT22;25670;44.782;10.356;2023-12-14T05:19:37;7.40;99.90
39983;DHT22;25670;44.782;10.356;2023-12-14T05:22:04;7.40;99.90
39983;DHT22;25670;44.782;10.356;2023-12-14T05:24:30;7.50;99.90
39983;DHT22;25670;44.782;10.356;2023-12-14T05:26:57;7.50;99.90
39983;DHT22;25670;44.782;10.356;2023-12-14T05:29:23;7.50;99.90
39983;DHT22;25670;44.782;10.356;2023-12-14T05:31:50;7.60;99.90
39983;DHT22;25670;44.782;10.356;2023-12-14T05:34:16;7.60;99.90
39983;DHT22;25670;44.782;10.356;2023-12-14T05:36:43;7.60;99.90
39983;DHT22;25670;44.782;10.356;2023-12-14T05:39:09;7.60;99.90
39983;DHT22;25670;44.782;10.356;2023-12-14T05:41:42;7.60;99.90
39983;DHT22;25670;44.782;10.356;2023-12-14T05:44:08;7.70;99.90
39983;DHT22;25670;44.782;10.356;2023-12-14T05:46:34;7.70;99.90
39983;DHT22;25670;44.782;10.356;2023-12-14T05:49:02;7.70;99.90
39983;DHT22;25670;44.782;10.356;2023-12-14T05:51:30;7.70;99.90
39983;DHT22;25670;44.782;10.356;2023-12-14T05:53:57;7.70;99.90
39983;DHT22;25670;44.782;10.356;2023-12-14T05:56:27;7.70;99.90
39983;DHT22;25670;44.782;10.356;2023-12-14T05:58:53;7.70;99.90
39983;DHT22;25670;44.782;10.356;2023-12-14T06:01:20;7.80;99.90
39983;DHT22;25670;44.782;10.356;2023-12-14T06:03:46;7.80;99.90
39983;DHT22;25670;44.782;10.356;2023-12-14T06:06:13;7.80;99.90
39983;DHT22;25670;44.782;10.356;2023-12-14T06:08:40;7.80;99.90
39983;DHT22;25670;44.782;10.356;2023-12-14T06:11:14;7.70;99.90
39983;DHT22;25670;44.782;10.356;2023-12-14T06:13:40;7.70;99.90
39983;DHT22;25670;44.782;10.356;2023-12-14T06:16:07;7.70;99.90
39983;DHT22;25670;44.782;10.356;2023-12-14T06:18:40;7.80;99.90
39983;DHT22;25670;44.782;10.356;2023-12-14T06:21:08;7.80;99.90
39983;DHT22;25670;44.782;10.356;2023-12-14T06:23:35;7.90;99.90
39983;DHT22;25670;44.782;10.356;2023-12-14T06:26:03;7.90;99.90
39983;DHT22;25670;44.782;10.356;2023-12-14T06:28:32;8.00;99.90
39983;DHT22;25670;44.782;10.356;2023-12-14T06:30:59;7.90;99.90
39983;DHT22;25670;44.782;10.356;2023-12-14T06:33:27;7.90;99.90
39983;DHT22;25670;44.782;10.356;2023-12-14T06:35:53;7.90;99.90
39983;DHT22;25670;44.782;10.356;2023-12-14T06:38:20;7.90;99.90
39983;DHT22;25670;44.782;10.356;2023-12-14T06:40:46;7.90;99.90
39983;DHT22;25670;44.782;10.356;2023-12-14T06:43:13;7.90;99.90
39983;DHT22;25670;44.782;10.356;2023-12-14T06:45:39;7.90;99.90
39983;DHT22;25670;44.782;10.356;2023-12-14T06:48:06;8.00;99.90
39983;DHT22;25670;44.782;10.356;2023-12-14T06:50:32;7.90;99.90
39983;DHT22;25670;44.782;10.356;2023-12-14T06:53:02;7.90;99.90
39983;DHT22;25670;44.782;10.356;2023-12-14T06:55:28;8.00;99.90
39983;DHT22;25670;44.782;10.356;2023-12-14T06:57:54;8.00;99.90
39983;DHT22;25670;44.782;10.356;2023-12-14T07:00:21;8.00;99.90
39983;DHT22;25670;44.782;10.356;2023-12-14T07:02:48;8.00;99.90
39983;DHT22;25670;44.782;10.356;2023-12-14T07:05:14;8.00;99.90
39983;DHT22;25670;44.782;10.356;2023-12-14T07:07:41;7.90;99.90
39983;DHT22;25670;44.782;10.356;2023-12-14T07:10:07;8.00;99.90
39983;DHT22;25670;44.782;10.356;2023-12-14T07:12:34;8.00;99.90
39983;DHT22;25670;44.782;10.356;2023-12-14T07:15:00;8.00;99.90
39983;DHT22;25670;44.782;10.356;2023-12-14T07:17:27;8.00;99.90
39983;DHT22;25670;44.782;10.356;2023-12-14T07:19:53;8.00;99.90
39983;DHT22;25670;44.782;10.356;2023-12-14T07:22:20;8.00;99.90
39983;DHT22;25670;44.782;10.356;2023-12-14T07:24:46;8.00;99.90
39983;DHT22;25670;44.782;10.356;2023-12-14T07:27:13;8.00;99.90
39983;DHT22;25670;44.782;10.356;2023-12-14T07:29:39;8.00;99.90
39983;DHT22;25670;44.782;10.356;2023-12-14T07:32:06;7.90;99.90
39983;DHT22;25670;44.782;10.356;2023-12-14T07:34:33;8.00;99.90
39983;DHT22;25670;44.782;10.356;2023-12-14T07:37:06;8.10;99.90
39983;DHT22;25670;44.782;10.356;2023-12-14T07:39:38;8.10;99.90
39983;DHT22;25670;44.782;10.356;2023-12-14T07:42:05;8.10;99.90
39983;DHT22;25670;44.782;10.356;2023-12-14T07:44:32;8.20;99.90
39983;DHT22;25670;44.782;10.356;2023-12-14T07:47:00;8.20;99.90
39983;DHT22;25670;44.782;10.356;2023-12-14T07:49:27;8.30;99.90
39983;DHT22;25670;44.782;10.356;2023-12-14T07:51:53;8.30;99.90
39983;DHT22;25670;44.782;10.356;2023-12-14T07:54:20;8.30;99.90
39983;DHT22;25670;44.782;10.356;2023-12-14T07:56:46;8.30;99.90
39983;DHT22;25670;44.782;10.356;2023-12-14T07:59:13;8.20;99.90
39983;DHT22;25670;44.782;10.356;2023-12-14T08:01:40;8.20;99.90
39983;DHT22;25670;44.782;10.356;2023-12-14T08:04:07;8.20;99.90
39983;DHT22;25670;44.782;10.356;2023-12-14T08:06:37;8.30;99.90
39983;DHT22;25670;44.782;10.356;2023-12-14T08:09:07;8.30;99.90
39983;DHT22;25670;44.782;10.356;2023-12-14T08:11:33;8.30;99.90
39983;DHT22;25670;44.782;10.356;2023-12-14T08:14:00;8.40;99.90
39983;DHT22;25670;44.782;10.356;2023-12-14T08:16:28;8.30;99.90
39983;DHT22;25670;44.782;10.356;2023-12-14T08:18:54;8.40;99.90
39983;DHT22;25670;44.782;10.356;2023-12-14T08:21:21;8.30;99.90
39983;DHT22;25670;44.782;10.356;2023-12-14T08:23:48;8.30;99.90
39983;DHT22;25670;44.782;10.356;2023-12-14T08:26:14;8.40;99.90
39983;DHT22;25670;44.782;10.356;2023-12-14T08:28:41;8.40;99.90
39983;DHT22;25670;44.782;10.356;2023-12-14T08:31:08;8.50;99.90
39983;DHT22;25670;44.782;10.356;2023-12-14T08:33:36;8.50;99.90
39983;DHT22;25670;44.782;10.356;2023-12-14T08:36:03;8.60;99.90
39983;DHT22;25670;44.782;10.356;2023-12-14T08:38:31;8.60;99.90
39983;DHT22;25670;44.782;10.356;2023-12-14T08:40:58;8.70;99.90
39983;DHT22;25670;44.782;10.356;2023-12-14T08:43:25;8.80;99.90
39983;DHT22;25670;44.782;10.356;2023-12-14T08:45:51;8.90;99.90
39983;DHT22;25670;44.782;10.356;2023-12-14T08:48:18;8.90;99.90
39983;DHT22;25670;44.782;10.356;2023-12-14T08:50:46;8.90;99.90
39983;DHT22;25670;44.782;10.356;2023-12-14T08:53:12;8.90;99.90
39983;DHT22;25670;44.782;10.356;2023-12-14T08:55:39;9.00;99.90
39983;DHT22;25670;44.782;10.356;2023-12-14T08:58:06;9.00;99.90
39983;DHT22;25670;44.782;10.356;2023-12-14T09:00:32;9.00;99.90
39983;DHT22;25670;44.782;10.356;2023-12-14T09:02:59;8.90;99.90
39983;DHT22;25670;44.782;10.356;2023-12-14T09:05:26;8.90;99.90
39983;DHT22;25670;44.782;10.356;2023-12-14T09:07:58;8.80;99.90
39983;DHT22;25670;44.782;10.356;2023-12-14T09:10:25;8.60;99.90
39983;DHT22;25670;44.782;10.356;2023-12-14T09:12:58;8.60;99.90
39983;DHT22;25670;44.782;10.356;2023-12-14T09:15:26;8.60;99.90
39983;DHT22;25670;44.782;10.356;2023-12-14T09:17:53;8.60;99.90
39983;DHT22;25670;44.782;10.356;2023-12-14T09:20:20;8.60;99.90
39983;DHT22;25670;44.782;10.356;2023-12-14T09:22:57;8.70;99.90
39983;DHT22;25670;44.782;10.356;2023-12-14T09:25:24;8.80;99.90
39983;DHT22;25670;44.782;10.356;2023-12-14T09:27:50;8.90;99.90
39983;DHT22;25670;44.782;10.356;2023-12-14T09:30:29;9.10;99.90
39983;DHT22;25670;44.782;10.356;2023-12-14T09:32:56;9.30;99.90
39983;DHT22;25670;44.782;10.356;2023-12-14T09:35:23;9.60;99.90
39983;DHT22;25670;44.782;10.356;2023-12-14T09:37:50;9.70;99.90
39983;DHT22;25670;44.782;10.356;2023-12-14T09:40:16;9.80;99.90
39983;DHT22;25670;44.782;10.356;2023-12-14T09:42:48;9.80;99.90
39983;DHT22;25670;44.782;10.356;2023-12-14T09:45:23;9.70;99.90
39983;DHT22;25670;44.782;10.356;2023-12-14T09:47:53;10.90;99.90
39983;DHT22;25670;44.782;10.356;2023-12-14T09:50:21;9.50;99.90
39983;DHT22;25670;44.782;10.356;2023-12-14T09:52:47;9.50;99.90
39983;DHT22;25670;44.782;10.356;2023-12-14T09:55:16;9.60;99.90
39983;DHT22;25670;44.782;10.356;2023-12-14T09:57:54;9.60;99.90
39983;DHT22;25670;44.782;10.356;2023-12-14T10:00:35;9.90;99.90
39983;DHT22;25670;44.782;10.356;2023-12-14T10:03:19;10.00;99.90
39983;DHT22;25670;44.782;10.356;2023-12-14T10:05:47;10.30;99.90
39983;DHT22;25670;44.782;10.356;2023-12-14T10:08:16;10.60;99.90
39983;DHT22;25670;44.782;10.356;2023-12-14T10:10:43;10.80;99.90
39983;DHT22;25670;44.782;10.356;2023-12-14T10:13:10;10.90;99.90
39983;DHT22;25670;44.782;10.356;2023-12-14T10:15:42;10.90;99.90
39983;DHT22;25670;44.782;10.356;2023-12-14T10:18:09;10.70;99.90
39983;DHT22;25670;44.782;10.356;2023-12-14T10:20:36;10.70;99.90
39983;DHT22;25670;44.782;10.356;2023-12-14T10:23:07;10.60;99.90
39983;DHT22;25670;44.782;10.356;2023-12-14T10:25:35;10.50;99.90
39983;DHT22;25670;44.782;10.356;2023-12-14T10:28:02;10.50;99.90
39983;DHT22;25670;44.782;10.356;2023-12-14T10:30:29;10.50;99.90
39983;DHT22;25670;44.782;10.356;2023-12-14T10:32:57;10.50;99.90
39983;DHT22;25670;44.782;10.356;2023-12-14T10:35:26;10.60;99.90
39983;DHT22;25670;44.782;10.356;2023-12-14T10:38:01;10.50;99.90
39983;DHT22;25670;44.782;10.356;2023-12-14T10:40:28;10.40;99.90
39983;DHT22;25670;44.782;10.356;2023-12-14T10:43:03;10.40;99.90
39983;DHT22;25670;44.782;10.356;2023-12-14T10:45:32;10.50;99.90
39983;DHT22;25670;44.782;10.356;2023-12-14T10:48:00;10.60;99.90
39983;DHT22;25670;44.782;10.356;2023-12-14T10:50:34;10.70;99.90
39983;DHT22;25670;44.782;10.356;2023-12-14T10:53:03;10.80;99.90
39983;DHT22;25670;44.782;10.356;2023-12-14T10:55:44;10.80;99.90
39983;DHT22;25670;44.782;10.356;2023-12-14T10:58:11;11.20;99.90
39983;DHT22;25670;44.782;10.356;2023-12-14T11:00:38;11.50;99.90
39983;DHT22;25670;44.782;10.356;2023-12-14T11:03:05;11.70;99.90
39983;DHT22;25670;44.782;10.356;2023-12-14T11:05:37;11.80;99.90
39983;DHT22;25670;44.782;10.356;2023-12-14T11:08:05;12.00;96.30
39983;DHT22;25670;44.782;10.356;2023-12-14T11:10:39;12.20;97.60
39983;DHT22;25670;44.782;10.356;2023-12-14T11:13:10;12.20;86.50
39983;DHT22;25670;44.782;10.356;2023-12-14T11:15:45;12.20;89.60
39983;DHT22;25670;44.782;10.356;2023-12-14T11:21:00;12.20;96.10
39983;DHT22;25670;44.782;10.356;2023-12-14T11:23:35;12.30;90.80
39983;DHT22;25670;44.782;10.356;2023-12-14T11:26:08;12.40;41.70
39983;DHT22;25670;44.782;10.356;2023-12-14T11:28:42;12.30;35.10
39983;DHT22;25670;44.782;10.356;2023-12-14T11:31:12;11.90;50.00
39983;DHT22;25670;44.782;10.356;2023-12-14T11:33:39;12.30;46.40
39983;DHT22;25670;44.782;10.356;2023-12-14T11:36:08;12.20;41.70
39983;DHT22;25670;44.782;10.356;2023-12-14T11:38:35;12.20;35.50
39983;DHT22;25670;44.782;10.356;2023-12-14T11:41:02;12.20;37.10
39983;DHT22;25670;44.782;10.356;2023-12-14T11:43:29;12.40;45.60
39983;DHT22;25670;44.782;10.356;2023-12-14T11:45:56;12.50;35.70
39983;DHT22;25670;44.782;10.356;2023-12-14T11:48:22;12.60;70.30
39983;DHT22;25670;44.782;10.356;2023-12-14T11:50:51;13.00;51.60
39983;DHT22;25670;44.782;10.356;2023-12-14T11:53:18;13.30;43.70
39983;DHT22;25670;44.782;10.356;2023-12-14T11:55:45;13.50;22.90
39983;DHT22;25670;44.782;10.356;2023-12-14T11:58:13;13.50;21.70
39983;DHT22;25670;44.782;10.356;2023-12-14T12:00:42;13.60;3.30
39983;DHT22;25670;44.782;10.356;2023-12-14T12:03:19;13.70;1.00
39983;DHT22;25670;44.782;10.356;2023-12-14T12:05:51;13.60;1.00
39983;DHT22;25670;44.782;10.356;2023-12-14T12:08:18;13.30;33.40
39983;DHT22;25670;44.782;10.356;2023-12-14T12:10:46;13.10;34.10
39983;DHT22;25670;44.782;10.356;2023-12-14T12:13:15;13.10;26.40
39983;DHT22;25670;44.782;10.356;2023-12-14T12:15:42;12.90;30.90
39983;DHT22;25670;44.782;10.356;2023-12-14T12:18:16;12.40;94.90
39983;DHT22;25670;44.782;10.356;2023-12-14T12:20:43;12.20;99.90
39983;DHT22;25670;44.782;10.356;2023-12-14T12:23:09;11.90;99.00
39983;DHT22;25670;44.782;10.356;2023-12-14T12:25:36;11.80;99.90
39983;DHT22;25670;44.782;10.356;2023-12-14T12:28:03;11.70;99.90
39983;DHT22;25670;44.782;10.356;2023-12-14T12:30:30;11.70;99.90
39983;DHT22;25670;44.782;10.356;2023-12-14T12:32:57;11.60;99.90
39983;DHT22;25670;44.782;10.356;2023-12-14T12:35:24;11.70;99.90
39983;DHT22;25670;44.782;10.356;2023-12-14T12:37:51;11.80;99.90
39983;DHT22;25670;44.782;10.356;2023-12-14T12:40:22;12.00;99.90
39983;DHT22;25670;44.782;10.356;2023-12-14T12:42:49;12.20;95.60
39983;DHT22;25670;44.782;10.356;2023-12-14T12:45:17;12.50;65.30
39983;DHT22;25670;44.782;10.356;2023-12-14T12:47:48;12.90;24.90
39983;DHT22;25670;44.782;10.356;2023-12-14T12:50:14;13.00;13.80
39983;DHT22;25670;44.782;10.356;2023-12-14T12:52:41;13.10;19.10
39983;DHT22;25670;44.782;10.356;2023-12-14T12:55:08;13.10;26.80
39983;DHT22;25670;44.782;10.356;2023-12-14T12:57:37;13.10;19.40
39983;DHT22;25670;44.782;10.356;2023-12-14T13:00:04;12.90;28.30
39983;DHT22;25670;44.782;10.356;2023-12-14T13:02:34;12.90;25.60
39983;DHT22;25670;44.782;10.356;2023-12-14T13:05:00;12.80;35.50
39983;DHT22;25670;44.782;10.356;2023-12-14T13:07:26;12.80;25.20
39983;DHT22;25670;44.782;10.356;2023-12-14T13:09:56;12.60;40.70
39983;DHT22;25670;44.782;10.356;2023-12-14T13:12:22;12.50;39.20
39983;DHT22;25670;44.782;10.356;2023-12-14T13:14:49;12.30;53.50
39983;DHT22;25670;44.782;10.356;2023-12-14T13:17:15;12.30;67.20
39983;DHT22;25670;44.782;10.356;2023-12-14T13:19:44;12.20;63.50
39983;DHT22;25670;44.782;10.356;2023-12-14T13:22:11;12.40;67.90
39983;DHT22;25670;44.782;10.356;2023-12-14T13:24:38;12.40;46.40
39983;DHT22;25670;44.782;10.356;2023-12-14T13:27:04;12.30;49.40
39983;DHT22;25670;44.782;10.356;2023-12-14T13:29:31;12.20;61.50
39983;DHT22;25670;44.782;10.356;2023-12-14T13:31:59;12.20;65.80
39983;DHT22;25670;44.782;10.356;2023-12-14T13:34:28;12.20;56.90
39983;DHT22;25670;44.782;10.356;2023-12-14T13:36:55;12.30;46.00
39983;DHT22;25670;44.782;10.356;2023-12-14T13:39:22;12.30;44.60
39983;DHT22;25670;44.782;10.356;2023-12-14T13:41:49;12.30;40.50
39983;DHT22;25670;44.782;10.356;2023-12-14T13:44:15;12.30;35.00
39983;DHT22;25670;44.782;10.356;2023-12-14T13:46:42;12.40;34.60
39983;DHT22;25670;44.782;10.356;2023-12-14T13:49:08;12.60;22.30
39983;DHT22;25670;44.782;10.356;2023-12-14T13:51:36;12.80;17.50
39983;DHT22;25670;44.782;10.356;2023-12-14T13:54:05;12.60;12.30
39983;DHT22;25670;44.782;10.356;2023-12-14T13:56:31;12.40;21.10
39983;DHT22;25670;44.782;10.356;2023-12-14T13:58:58;12.20;39.40
39983;DHT22;25670;44.782;10.356;2023-12-14T14:01:24;12.50;49.80
39983;DHT22;25670;44.782;10.356;2023-12-14T14:03:53;12.90;7.70
39983;DHT22;25670;44.782;10.356;2023-12-14T14:06:19;13.40;1.00
39983;DHT22;25670;44.782;10.356;2023-12-14T14:08:47;13.90;1.00
39983;DHT22;25670;44.782;10.356;2023-12-14T14:11:13;14.50;99.90
39983;DHT22;25670;44.782;10.356;2023-12-14T14:13:40;15.30;99.90
39983;DHT22;25670;44.782;10.356;2023-12-14T14:16:07;15.80;99.90
39983;DHT22;25670;44.782;10.356;2023-12-14T14:18:34;16.40;66.60
39983;DHT22;25670;44.782;10.356;2023-12-14T14:21:01;16.70;1.00
39983;DHT22;25670;44.782;10.356;2023-12-14T14:23:27;17.00;1.00
39983;DHT22;25670;44.782;10.356;2023-12-14T14:25:54;17.20;99.90
39983;DHT22;25670;44.782;10.356;2023-12-14T14:28:21;17.30;99.90
39983;DHT22;25670;44.782;10.356;2023-12-14T14:30:48;17.30;99.90
39983;DHT22;25670;44.782;10.356;2023-12-14T14:33:15;17.40;37.40
39983;DHT22;25670;44.782;10.356;2023-12-14T14:35:45;17.40;45.10
39983;DHT22;25670;44.782;10.356;2023-12-14T14:38:13;17.40;99.90
39983;DHT22;25670;44.782;10.356;2023-12-14T14:40:40;17.30;99.90
39983;DHT22;25670;44.782;10.356;2023-12-14T14:43:08;17.10;91.60
39983;DHT22;25670;44.782;10.356;2023-12-14T14:45:35;16.60;48.30
39983;DHT22;25670;44.782;10.356;2023-12-14T14:48:04;15.90;70.40
39983;DHT22;25670;44.782;10.356;2023-12-14T14:50:34;15.30;99.90
39983;DHT22;25670;44.782;10.356;2023-12-14T14:53:01;15.00;99.90
39983;DHT22;25670;44.782;10.356;2023-12-14T14:55:29;14.80;99.90
39983;DHT22;25670;44.782;10.356;2023-12-14T14:57:56;14.60;99.90
39983;DHT22;25670;44.782;10.356;2023-12-14T15:00:22;14.40;99.90
39983;DHT22;25670;44.782;10.356;2023-12-14T15:02:49;14.00;1.00
39983;DHT22;25670;44.782;10.356;2023-12-14T15:05:16;13.70;1.00
39983;DHT22;25670;44.782;10.356;2023-12-14T15:07:42;13.60;1.00
39983;DHT22;25670;44.782;10.356;2023-12-14T15:10:09;13.40;1.00
39983;DHT22;25670;44.782;10.356;2023-12-14T15:12:36;13.20;1.00
39983;DHT22;25670;44.782;10.356;2023-12-14T15:15:03;12.90;14.50
39983;DHT22;25670;44.782;10.356;2023-12-14T15:17:29;12.50;38.80
39983;DHT22;25670;44.782;10.356;2023-12-14T15:19:56;12.20;57.10
39983;DHT22;25670;44.782;10.356;2023-12-14T15:22:23;11.90;78.40
39983;DHT22;25670;44.782;10.356;2023-12-14T15:24:49;11.60;90.70
39983;DHT22;25670;44.782;10.356;2023-12-14T15:27:16;11.30;99.00
39983;DHT22;25670;44.782;10.356;2023-12-14T15:29:42;11.00;99.90